Time;durP1;ratioP1;P1;durP2;ratioP2;P2;SDS_P1;SDS_P2;PMS_P1;PMS_P2;Temp;Humidity;BMP_temperature;BMP_pressure;BME280_temperature;BME280_humidity;BME280_pressure;Samples;Min_cycle;Max_cycle;Signal;HPM_P1;HPM_P2
2022/09/20 00:00:38;;;;;;;0.40;0.40;;;9.80;99.90;;;;;;4428673;32;20131;-66
2022/09/20 00:03:04;;;;;;;0.28;0.28;;;9.70;99.90;;;;;;4414714;32;20085;-66
2022/09/20 00:05:33;;;;;;;0.43;0.43;;;9.70;99.90;;;;;;4426760;32;20094;-66
2022/09/20 00:07:59;;;;;;;0.80;0.80;;;9.80;99.90;;;;;;4428160;32;20078;-67
2022/09/20 00:10:26;;;;;;;0.30;0.30;;;9.70;99.90;;;;;;4428864;32;20070;-66
2022/09/20 00:12:52;;;;;;;0.35;0.35;;;9.70;99.90;;;;;;4429189;32;20085;-66
2022/09/20 00:15:17;;;;;;;0.20;0.20;;;9.70;99.90;;;;;;4426520;32;20698;-67
2022/09/20 00:17:42;;;;;;;0.32;0.32;;;9.70;99.90;;;;;;4426679;32;20102;-67
2022/09/20 00:20:08;;;;;;;4.82;0.73;;;9.70;99.90;;;;;;4424495;32;20081;-66
2022/09/20 00:22:34;;;;;;;0.20;0.20;;;9.70;99.90;;;;;;4424412;32;20078;-67
2022/09/20 00:25:00;;;;;;;1.10;0.50;;;9.70;99.90;;;;;;4423527;32;20069;-67
2022/09/20 00:27:26;;;;;;;0.45;0.45;;;9.70;99.90;;;;;;4427838;32;20516;-67
2022/09/20 00:29:52;;;;;;;0.30;0.30;;;9.70;99.90;;;;;;4427332;32;20532;-66
2022/09/20 00:32:18;;;;;;;1.42;1.33;;;9.70;99.90;;;;;;4426479;32;20073;-66
2022/09/20 00:35:15;;;;;;;0.40;0.40;;;9.70;99.90;;;;;;4416993;32;20120;-66
2022/09/20 00:37:29;;;;;;;0.30;0.30;;;9.80;99.90;;;;;;4417919;32;20085;-67
2022/09/20 00:39:54;;;;;;;0.65;0.65;;;9.70;99.90;;;;;;4430473;32;20065;-67
2022/09/20 00:42:26;;;;;;;0.40;0.40;;;9.70;99.90;;;;;;4431558;32;20106;-67
2022/09/20 00:44:59;;;;;;;0.30;0.30;;;9.80;99.90;;;;;;4429630;32;20069;-66
2022/09/20 00:47:31;;;;;;;0.32;0.32;;;9.80;99.90;;;;;;4430171;32;20058;-66
2022/09/20 00:50:21;;;;;;;0.30;0.30;;;9.80;99.90;;;;;;4427921;32;20533;-66
2022/09/20 00:52:50;;;;;;;0.30;0.30;;;9.80;99.90;;;;;;4419893;32;20120;-66
2022/09/20 00:55:17;;;;;;;0.30;0.30;;;9.80;99.90;;;;;;4428842;32;20073;-66
2022/09/20 00:57:44;;;;;;;0.43;0.43;;;9.70;99.90;;;;;;4430394;32;20105;-67
2022/09/20 01:00:11;;;;;;;0.30;0.30;;;9.60;99.90;;;;;;4427782;32;20101;-67
2022/09/20 01:02:41;;;;;;;0.30;0.30;;;9.50;99.90;;;;;;4421353;32;20378;-67
2022/09/20 01:05:08;;;;;;;0.40;0.40;;;9.60;99.90;;;;;;4421078;32;20061;-67
2022/09/20 01:07:34;;;;;;;0.20;0.20;;;9.60;99.90;;;;;;4413876;32;20132;-67
2022/09/20 01:10:00;;;;;;;0.25;0.25;;;9.50;99.90;;;;;;4427259;32;20076;-67
2022/09/20 01:12:30;;;;;;;0.30;0.30;;;9.50;99.90;;;;;;4428198;32;20419;-67
2022/09/20 01:14:57;;;;;;;0.30;0.30;;;9.50;99.90;;;;;;4425011;32;20109;-67
2022/09/20 01:17:26;;;;;;;0.30;0.30;;;9.60;99.90;;;;;;4428102;32;20473;-67
2022/09/20 01:20:28;;;;;;;0.43;0.43;;;9.60;99.90;;;;;;4425276;32;20077;-67
2022/09/20 01:23:33;;;;;;;4.03;1.95;;;9.70;99.90;;;;;;4404949;32;20192;-67
2022/09/20 01:26:29;;;;;;;0.30;0.30;;;9.70;99.90;;;;;;4414087;32;20066;-67
2022/09/20 01:29:17;;;;;;;0.30;0.30;;;9.60;99.90;;;;;;4416775;32;20076;-66
2022/09/20 01:31:48;;;;;;;0.30;0.30;;;9.60;99.90;;;;;;4415644;32;20073;-66
2022/09/20 01:34:20;;;;;;;0.37;0.37;;;9.60;99.90;;;;;;4413637;32;20065;-66
2022/09/20 01:37:09;;;;;;;0.30;0.30;;;9.60;99.90;;;;;;4425207;32;20192;-66
2022/09/20 01:39:44;;;;;;;0.30;0.30;;;9.50;99.90;;;;;;4412301;32;20576;-66
2022/09/20 01:42:13;;;;;;;0.65;0.55;;;9.50;99.90;;;;;;4425454;32;20153;-66
2022/09/20 01:45:07;;;;;;;0.30;0.30;;;9.40;99.90;;;;;;4424668;32;20082;-66
2022/09/20 01:48:13;;;;;;;0.30;0.30;;;9.40;99.90;;;;;;4413233;32;20102;-66
2022/09/20 01:51:05;;;;;;;0.40;0.40;;;9.40;99.90;;;;;;4413255;32;20071;-66
2022/09/20 01:54:08;;;;;;;0.30;0.30;;;9.50;99.90;;;;;;4426933;32;20077;-66
2022/09/20 01:56:49;;;;;;;0.20;0.20;;;9.40;99.90;;;;;;4415020;32;20085;-67
2022/09/20 01:59:37;;;;;;;0.30;0.30;;;9.40;99.90;;;;;;4425896;32;20085;-67
2022/09/20 02:02:42;;;;;;;0.30;0.30;;;9.50;99.90;;;;;;4424494;32;20090;-67
2022/09/20 02:05:39;;;;;;;0.40;0.40;;;9.40;99.90;;;;;;4409726;32;20860;-67
2022/09/20 02:08:24;;;;;;;0.30;0.30;;;9.50;99.90;;;;;;4415464;32;20558;-66
2022/09/20 02:11:05;;;;;;;0.20;0.20;;;9.60;99.90;;;;;;4425030;32;20081;-66
2022/09/20 02:13:40;;;;;;;;;;;9.50;99.90;;;;;;4412801;32;20426;-67
2022/09/20 02:16:45;;;;;;;0.30;0.30;;;9.50;99.90;;;;;;4428489;32;19945;-66
2022/09/20 02:19:19;;;;;;;0.30;0.30;;;9.60;99.90;;;;;;4407915;32;20108;-67
2022/09/20 02:22:25;;;;;;;0.40;0.40;;;9.60;99.90;;;;;;4426909;32;20057;-67
2022/09/20 02:25:16;;;;;;;0.40;0.40;;;9.60;99.90;;;;;;4417463;32;20089;-67
2022/09/20 02:28:10;;;;;;;0.30;0.30;;;9.60;99.90;;;;;;4421087;32;20073;-67
2022/09/20 02:31:15;;;;;;;0.30;0.30;;;9.60;99.90;;;;;;4419966;32;20471;-67
2022/09/20 02:34:09;;;;;;;0.30;0.30;;;9.70;99.90;;;;;;4403393;32;20077;-67
2022/09/20 02:36:44;;;;;;;0.35;0.35;;;9.70;99.90;;;;;;4418427;32;20081;-66
2022/09/20 02:39:16;;;;;;;0.30;0.30;;;9.70;99.90;;;;;;4428868;32;20082;-67
2022/09/20 02:41:51;;;;;;;0.32;0.32;;;9.70;99.90;;;;;;4431589;32;20093;-67
2022/09/20 02:44:41;;;;;;;0.37;0.37;;;9.70;99.90;;;;;;4430172;32;20089;-66
2022/09/20 02:47:32;;;;;;;0.30;0.30;;;9.70;99.90;;;;;;4419447;32;20089;-66
2022/09/20 02:50:12;;;;;;;0.43;0.43;;;9.80;99.90;;;;;;4427713;32;20124;-66
2022/09/20 02:53:08;;;;;;;0.30;0.30;;;9.80;99.90;;;;;;4430722;32;20140;-66
2022/09/20 02:55:46;;;;;;;0.40;0.40;;;9.80;99.90;;;;;;4428161;32;20719;-67
2022/09/20 02:58:27;;;;;;;1.05;0.35;;;9.80;99.90;;;;;;4432250;32;20165;-67
2022/09/20 03:01:15;;;;;;;1.98;0.40;;;9.80;99.90;;;;;;4416287;32;20163;-67
2022/09/20 03:04:21;;;;;;;0.40;0.40;;;9.80;99.90;;;;;;4396302;32;20085;-67
2022/09/20 03:07:07;;;;;;;0.30;0.30;;;9.90;99.90;;;;;;4418689;32;20065;-67
2022/09/20 03:10:13;;;;;;;0.37;0.37;;;9.90;99.90;;;;;;4417027;32;20088;-67
2022/09/20 03:12:52;;;;;;;0.30;0.30;;;9.90;99.90;;;;;;4413353;32;20089;-66
2022/09/20 03:15:47;;;;;;;0.32;0.32;;;9.90;99.90;;;;;;4428627;32;20086;-67
2022/09/20 03:18:16;;;;;;;0.30;0.30;;;9.90;99.90;;;;;;4418538;32;20073;-66
2022/09/20 03:20:56;;;;;;;0.32;0.32;;;9.90;99.90;;;;;;4412514;32;20081;-66
2022/09/20 03:23:40;;;;;;;0.40;0.40;;;9.90;99.90;;;;;;4428429;32;20242;-67
2022/09/20 03:26:16;;;;;;;0.30;0.30;;;10.00;99.90;;;;;;4427677;32;20069;-66
2022/09/20 03:29:09;;;;;;;0.30;0.30;;;9.90;99.90;;;;;;4430250;32;20097;-67
2022/09/20 03:31:46;;;;;;;0.62;0.60;;;10.00;99.90;;;;;;4413887;32;20065;-66
2022/09/20 03:34:40;;;;;;;0.20;0.20;;;10.00;99.90;;;;;;4413853;32;20086;-67
2022/09/20 03:37:22;;;;;;;0.30;0.30;;;10.00;99.90;;;;;;4412123;32;20437;-67
2022/09/20 03:40:00;;;;;;;0.30;0.30;;;10.10;99.90;;;;;;4429591;32;20093;-66
2022/09/20 03:42:28;;;;;;;0.62;0.62;;;10.10;99.90;;;;;;4430183;32;20137;-66
2022/09/20 03:45:25;;;;;;;0.30;0.30;;;10.10;99.90;;;;;;4429925;32;20101;-66
2022/09/20 03:48:20;;;;;;;0.35;0.35;;;10.10;99.90;;;;;;4417357;32;20093;-67
2022/09/20 03:51:15;;;;;;;0.30;0.30;;;10.10;99.90;;;;;;4416960;32;20061;-66
2022/09/20 03:54:20;;;;;;;0.52;0.43;;;10.10;99.90;;;;;;4427761;32;20077;-66
2022/09/20 03:57:04;;;;;;;0.30;0.30;;;10.10;99.90;;;;;;4419762;32;20065;-66
2022/09/20 03:59:44;;;;;;;0.73;0.50;;;10.10;99.90;;;;;;4429817;32;20081;-67
2022/09/20 04:02:19;;;;;;;0.40;0.40;;;10.10;99.90;;;;;;4429001;32;20093;-67
2022/09/20 04:04:52;;;;;;;0.40;0.40;;;10.00;99.90;;;;;;4418507;32;20073;-67
2022/09/20 04:07:26;;;;;;;0.25;0.25;;;10.10;99.90;;;;;;4426456;32;20093;-66
2022/09/20 04:09:59;;;;;;;0.30;0.30;;;10.10;99.90;;;;;;4428010;32;20161;-67
2022/09/20 04:12:48;;;;;;;0.40;0.40;;;10.10;99.90;;;;;;4429771;32;20061;-67
2022/09/20 04:15:27;;;;;;;0.37;0.37;;;10.00;99.90;;;;;;4415059;32;20061;-66
2022/09/20 04:17:59;;;;;;;0.35;0.35;;;10.00;99.90;;;;;;4407797;32;20102;-67
2022/09/20 04:20:31;;;;;;;0.30;0.30;;;10.00;99.90;;;;;;4425501;32;20090;-67
2022/09/20 04:23:02;;;;;;;0.20;0.20;;;10.00;99.90;;;;;;4403728;32;20288;-67
2022/09/20 04:25:34;;;;;;;;;;;10.00;99.90;;;;;;4411208;32;20098;-66
2022/09/20 04:28:07;;;;;;;0.30;0.30;;;9.90;99.90;;;;;;4410619;32;19960;-67
2022/09/20 04:30:42;;;;;;;1.37;1.02;;;10.00;99.90;;;;;;4429001;32;20097;-67
2022/09/20 04:33:19;;;;;;;0.22;0.22;;;10.00;99.90;;;;;;4417320;32;20070;-67
2022/09/20 04:36:43;;;;;;;0.50;0.50;;;10.00;99.90;;;;;;4428199;32;20089;-67
2022/09/20 04:42:14;;;;;;;0.30;0.30;;;10.00;99.90;;;;;;4428683;32;20109;-67
2022/09/20 04:44:57;;;;;;;0.40;0.40;;;10.00;99.90;;;;;;4428747;32;20114;-66
2022/09/20 04:47:50;;;;;;;0.30;0.30;;;10.00;99.90;;;;;;4430654;32;20122;-67
2022/09/20 04:50:36;;;;;;;0.30;0.30;;;10.00;99.90;;;;;;4428559;32;20137;-67
2022/09/20 04:53:16;;;;;;;0.40;0.40;;;9.90;99.90;;;;;;4388429;32;20069;-67
2022/09/20 04:56:12;;;;;;;0.50;0.50;;;9.90;99.90;;;;;;4425786;32;20085;-66
2022/09/20 04:58:46;;;;;;;0.30;0.30;;;9.90;99.90;;;;;;4414898;32;20089;-66
2022/09/20 05:01:33;;;;;;;1.00;0.60;;;9.80;99.90;;;;;;4416219;32;20191;-67
2022/09/20 05:04:27;;;;;;;0.40;0.40;;;9.80;99.90;;;;;;4379255;32;20097;-67
2022/09/20 05:07:15;;;;;;;0.30;0.30;;;9.90;99.90;;;;;;4390699;32;20078;-67
2022/09/20 05:09:53;;;;;;;0.50;0.50;;;9.90;99.90;;;;;;4381412;32;20691;-67
2022/09/20 05:12:46;;;;;;;0.75;0.75;;;9.90;99.90;;;;;;4419356;32;20517;-66
2022/09/20 05:15:35;;;;;;;0.40;0.40;;;9.80;99.90;;;;;;4413034;32;20514;-67
2022/09/20 05:18:24;;;;;;;0.30;0.30;;;9.90;99.90;;;;;;4367783;32;21270;-67
2022/09/20 05:21:11;;;;;;;0.30;0.30;;;9.90;99.90;;;;;;4357995;32;20118;-67
2022/09/20 05:24:06;;;;;;;0.70;0.45;;;9.90;99.90;;;;;;4362350;32;20776;-67
2022/09/20 05:26:49;;;;;;;0.50;0.50;;;9.90;99.90;;;;;;4393149;32;21197;-66
2022/09/20 05:29:37;;;;;;;0.25;0.25;;;9.90;99.90;;;;;;4357683;32;20129;-67
2022/09/20 05:32:17;;;;;;;0.35;0.35;;;9.90;99.90;;;;;;4337952;32;20089;-67
2022/09/20 05:35:05;;;;;;;0.30;0.30;;;9.90;99.90;;;;;;4361505;32;20097;-67
2022/09/20 05:37:48;;;;;;;0.40;0.40;;;9.90;99.90;;;;;;4398429;32;20190;-67
2022/09/20 05:40:16;;;;;;;0.30;0.30;;;9.90;99.90;;;;;;4399701;32;20085;-67
2022/09/20 05:43:23;;;;;;;0.37;0.37;;;10.00;99.90;;;;;;4415923;32;20717;-66
2022/09/20 05:46:10;;;;;;;0.40;0.40;;;10.00;99.90;;;;;;4399252;32;20086;-66
2022/09/20 05:48:45;;;;;;;0.37;0.37;;;10.00;99.90;;;;;;4389189;32;20097;-66
2022/09/20 05:51:44;;;;;;;0.35;0.35;;;10.00;99.90;;;;;;4412754;32;20104;-67
2022/09/20 05:54:26;;;;;;;0.52;0.52;;;10.10;99.90;;;;;;4375005;32;20882;-69
2022/09/20 05:57:14;;;;;;;0.40;0.40;;;10.10;99.90;;;;;;4385754;32;20204;-67
2022/09/20 05:59:56;;;;;;;0.40;0.40;;;10.20;99.90;;;;;;4360368;32;21133;-67
2022/09/20 06:02:29;;;;;;;0.43;0.43;;;10.20;99.90;;;;;;4373508;32;20939;-67
2022/09/20 06:05:05;;;;;;;0.30;0.30;;;10.20;99.90;;;;;;4378241;32;20469;-67
2022/09/20 06:08:01;;;;;;;0.30;0.30;;;10.30;99.90;;;;;;4386200;32;21062;-67
2022/09/20 06:10:54;;;;;;;0.90;0.60;;;10.30;99.90;;;;;;4383532;32;20105;-70
2022/09/20 06:14:02;;;;;;;0.20;0.20;;;10.40;99.90;;;;;;4364498;32;20113;-68
2022/09/20 06:16:47;;;;;;;0.40;0.40;;;10.50;99.90;;;;;;4380071;32;20203;-69
2022/09/20 06:19:37;;;;;;;0.70;0.70;;;10.60;99.90;;;;;;4374020;32;20090;-68
2022/09/20 06:22:30;;;;;;;2.75;0.55;;;10.60;99.90;;;;;;4379578;32;20531;-68
2022/09/20 06:25:09;;;;;;;0.30;0.30;;;10.60;99.90;;;;;;4376438;32;20232;-68
2022/09/20 06:27:41;;;;;;;0.40;0.40;;;10.70;99.90;;;;;;4390964;32;20602;-68
2022/09/20 06:30:16;;;;;;;0.40;0.37;;;10.70;99.90;;;;;;4372024;32;20113;-68
2022/09/20 06:32:59;;;;;;;0.30;0.30;;;10.80;99.90;;;;;;4355889;32;20127;-68
2022/09/20 06:35:34;;;;;;;0.30;0.30;;;10.80;99.90;;;;;;4369871;32;20818;-68
2022/09/20 06:41:33;;;;;;;0.30;0.30;;;10.80;99.90;;;;;;4367559;32;20797;-68
2022/09/20 06:43:47;;;;;;;0.45;0.45;;;10.80;99.90;;;;;;4376759;32;20109;-68
2022/09/20 06:46:14;;;;;;;0.40;0.40;;;10.80;99.90;;;;;;4390648;32;20085;-69
2022/09/20 06:48:41;;;;;;;0.30;0.30;;;10.90;99.90;;;;;;4382592;32;20110;-68
2022/09/20 06:51:08;;;;;;;0.30;0.30;;;10.90;99.90;;;;;;4387787;32;20164;-69
2022/09/20 06:53:36;;;;;;;0.40;0.40;;;10.90;99.90;;;;;;4384865;32;20242;-67
2022/09/20 06:56:02;;;;;;;0.30;0.30;;;11.00;99.90;;;;;;4396483;32;20917;-68
2022/09/20 06:58:28;;;;;;;4.65;0.82;;;11.00;99.90;;;;;;4373320;32;20081;-67
2022/09/20 07:00:53;;;;;;;0.52;0.52;;;11.10;99.90;;;;;;4377143;32;20089;-67
2022/09/20 07:03:19;;;;;;;0.30;0.30;;;11.10;99.90;;;;;;4370797;32;20675;-67
2022/09/20 07:05:45;;;;;;;0.40;0.40;;;11.10;99.90;;;;;;4387264;32;20096;-69
2022/09/20 07:09:22;;;;;;;0.30;0.30;;;11.20;99.90;;;;;;4383850;32;20507;-68
2022/09/20 07:11:36;;;;;;;0.40;0.40;;;11.20;99.90;;;;;;4358510;32;21048;-68
2022/09/20 07:14:01;;;;;;;0.40;0.40;;;11.20;99.90;;;;;;4381688;32;20128;-68
2022/09/20 07:16:27;;;;;;;0.30;0.30;;;11.30;99.90;;;;;;4380316;32;20781;-68
2022/09/20 07:18:52;;;;;;;0.30;0.30;;;11.40;99.90;;;;;;4370449;32;20657;-68
2022/09/20 07:21:19;;;;;;;0.60;0.60;;;11.40;99.90;;;;;;4384122;32;20182;-68
2022/09/20 07:23:47;;;;;;;0.55;0.55;;;11.40;99.90;;;;;;4368651;32;20474;-68
2022/09/20 07:26:24;;;;;;;0.30;0.30;;;11.50;99.90;;;;;;4369237;32;20608;-68
2022/09/20 07:28:50;;;;;;;0.40;0.40;;;11.50;99.90;;;;;;4371725;32;20104;-67
2022/09/20 07:31:17;;;;;;;0.50;0.50;;;11.50;99.90;;;;;;4368481;32;20181;-67
2022/09/20 07:33:42;;;;;;;0.30;0.30;;;11.60;99.90;;;;;;4347733;32;20109;-67
2022/09/20 07:36:11;;;;;;;1.50;1.40;;;11.60;99.90;;;;;;4389539;32;20101;-68
2022/09/20 07:38:37;;;;;;;0.45;0.45;;;11.70;99.90;;;;;;4397639;32;20108;-68
2022/09/20 07:41:02;;;;;;;0.37;0.37;;;11.60;99.90;;;;;;4382127;32;20132;-68
2022/09/20 07:43:29;;;;;;;0.30;0.30;;;11.50;99.90;;;;;;4377024;32;20097;-68
2022/09/20 07:45:58;;;;;;;1.60;0.57;;;11.50;99.90;;;;;;4379249;32;20112;-68
2022/09/20 07:48:28;;;;;;;0.90;0.75;;;11.50;99.90;;;;;;4380988;32;20347;-69
2022/09/20 07:50:57;;;;;;;0.30;0.30;;;11.50;99.90;;;;;;4387095;32;20097;-68
2022/09/20 07:53:23;;;;;;;0.75;0.75;;;11.50;99.90;;;;;;4343463;32;20105;-69
2022/09/20 07:55:58;;;;;;;0.30;0.30;;;11.50;99.90;;;;;;4356160;32;20101;-68
2022/09/20 07:58:23;;;;;;;0.40;0.40;;;11.60;99.90;;;;;;4358379;32;20211;-68
2022/09/20 08:00:52;;;;;;;0.30;0.30;;;11.70;99.90;;;;;;4371774;32;20745;-68
2022/09/20 08:03:17;;;;;;;0.30;0.30;;;11.70;99.90;;;;;;4361111;32;20110;-68
2022/09/20 08:05:43;;;;;;;0.30;0.30;;;11.80;99.90;;;;;;4381896;32;20152;-68
2022/09/20 08:08:08;;;;;;;0.40;0.40;;;11.90;99.90;;;;;;4377485;32;20496;-68
2022/09/20 08:10:34;;;;;;;0.47;0.47;;;12.00;99.90;;;;;;4372409;32;20097;-68
2022/09/20 08:12:59;;;;;;;0.30;0.30;;;12.10;99.90;;;;;;4386495;32;20620;-68
2022/09/20 08:15:25;;;;;;;0.40;0.40;;;12.10;99.90;;;;;;4382909;32;20121;-69
2022/09/20 08:17:50;;;;;;;0.80;0.70;;;12.10;99.90;;;;;;4379554;32;20097;-69
2022/09/20 08:20:16;;;;;;;0.30;0.30;;;12.10;99.90;;;;;;4382027;32;20112;-69
2022/09/20 08:22:43;;;;;;;0.45;0.45;;;12.20;99.90;;;;;;4374173;32;20762;-69
2022/09/20 08:25:09;;;;;;;1.08;1.05;;;12.20;99.90;;;;;;4380610;32;20093;-68
2022/09/20 08:27:35;;;;;;;0.40;0.40;;;12.30;99.90;;;;;;4371081;32;20105;-68
2022/09/20 08:30:00;;;;;;;0.88;0.82;;;12.40;99.90;;;;;;4371195;32;20088;-68
2022/09/20 08:32:25;;;;;;;0.30;0.30;;;12.40;99.90;;;;;;4370187;32;113666;-68
2022/09/20 08:34:51;;;;;;;0.90;0.88;;;12.50;99.90;;;;;;4354024;32;20153;-68
2022/09/20 08:37:16;;;;;;;0.40;0.40;;;12.50;99.90;;;;;;4375345;32;20125;-70
2022/09/20 08:39:42;;;;;;;0.50;0.32;;;12.50;99.90;;;;;;4376700;32;20595;-69
2022/09/20 08:42:19;;;;;;;0.57;0.57;;;12.50;99.90;;;;;;4371217;32;20641;-68
2022/09/20 08:44:53;;;;;;;4.57;0.65;;;12.60;99.90;;;;;;4371945;32;20097;-67
2022/09/20 08:47:23;;;;;;;0.40;0.40;;;12.70;99.90;;;;;;4379731;32;20081;-68
2022/09/20 08:49:52;;;;;;;0.50;0.50;;;12.70;99.90;;;;;;4378599;32;20665;-68
2022/09/20 08:52:29;;;;;;;0.30;0.30;;;12.80;99.90;;;;;;4376435;32;20065;-67
2022/09/20 08:54:56;;;;;;;0.40;0.40;;;12.80;99.90;;;;;;4352304;32;20412;-67
2022/09/20 08:57:24;;;;;;;0.40;0.40;;;12.90;99.90;;;;;;4373401;32;20160;-67
2022/09/20 08:59:50;;;;;;;0.50;0.50;;;12.90;99.90;;;;;;4372749;32;21759;-68
2022/09/20 09:02:18;;;;;;;0.30;0.30;;;12.90;99.90;;;;;;4366096;32;20324;-67
2022/09/20 09:04:44;;;;;;;0.50;0.50;;;13.10;99.90;;;;;;4339085;32;20129;-68
2022/09/20 09:07:14;;;;;;;0.47;0.47;;;13.10;99.90;;;;;;4354490;32;20094;-68
2022/09/20 09:09:42;;;;;;;0.32;0.32;;;13.10;99.90;;;;;;4348169;32;20097;-67
2022/09/20 09:12:20;;;;;;;0.30;0.30;;;13.20;99.90;;;;;;4367404;32;20093;-66
2022/09/20 09:14:47;;;;;;;0.40;0.40;;;13.20;99.90;;;;;;4370040;32;20105;-67
2022/09/20 09:17:16;;;;;;;0.43;0.43;;;13.20;99.90;;;;;;4371955;32;20486;-67
2022/09/20 09:19:44;;;;;;;0.40;0.40;;;13.40;99.90;;;;;;4361084;32;20149;-68
2022/09/20 09:22:16;;;;;;;0.50;0.50;;;13.40;99.90;;;;;;4345803;32;20249;-67
2022/09/20 09:24:41;;;;;;;0.40;0.40;;;13.60;99.90;;;;;;4359397;32;20304;-66
2022/09/20 09:27:15;;;;;;;1.02;0.98;;;13.60;99.90;;;;;;4364484;32;20097;-66
2022/09/20 09:29:56;;;;;;;0.50;0.50;;;13.60;99.90;;;;;;4345499;32;20216;-68
2022/09/20 09:32:26;;;;;;;0.40;0.40;;;13.60;99.90;;;;;;4366267;32;20112;-66
2022/09/20 09:34:51;;;;;;;0.40;0.40;;;13.70;99.90;;;;;;4348319;32;20870;-67
2022/09/20 09:37:33;;;;;;;0.52;0.52;;;13.80;99.90;;;;;;4373389;32;20085;-67
2022/09/20 09:40:17;;;;;;;0.77;0.77;;;14.00;99.90;;;;;;4377033;32;20181;-67
2022/09/20 09:43:00;;;;;;;0.50;0.50;;;14.20;99.90;;;;;;4372499;32;20109;-66
2022/09/20 09:45:30;;;;;;;0.75;0.55;;;14.30;99.90;;;;;;4348636;32;21056;-66
2022/09/20 09:47:58;;;;;;;0.75;0.75;;;14.30;99.90;;;;;;4352203;32;20390;-67
2022/09/20 09:50:29;;;;;;;0.30;0.30;;;14.10;99.90;;;;;;4371377;32;21104;-68
2022/09/20 09:52:58;;;;;;;3.05;1.67;;;14.00;99.90;;;;;;4358585;32;20097;-68
2022/09/20 09:55:31;;;;;;;0.40;0.40;;;14.00;99.90;;;;;;4361792;32;21112;-68
2022/09/20 09:58:12;;;;;;;0.40;0.40;;;14.10;99.90;;;;;;4381814;32;20147;-67
2022/09/20 10:00:44;;;;;;;0.40;0.40;;;14.10;99.90;;;;;;4382869;32;20137;-68
2022/09/20 10:03:27;;;;;;;0.50;0.50;;;14.10;99.90;;;;;;4365834;32;20635;-67
2022/09/20 10:06:16;;;;;;;0.40;0.40;;;14.20;99.90;;;;;;4374639;32;20105;-68
2022/09/20 10:09:02;;;;;;;0.50;0.50;;;14.20;99.90;;;;;;4362499;32;20161;-68
2022/09/20 10:11:45;;;;;;;0.88;0.40;;;14.20;99.90;;;;;;4364566;32;21495;-68
2022/09/20 10:14:32;;;;;;;1.27;1.15;;;14.30;99.90;;;;;;4373393;32;21499;-68
2022/09/20 10:17:14;;;;;;;0.55;0.55;;;14.40;99.90;;;;;;4353841;32;21708;-67
2022/09/20 10:20:00;;;;;;;0.40;0.40;;;14.50;99.90;;;;;;4370747;32;20806;-68
2022/09/20 10:22:53;;;;;;;1.65;0.77;;;14.60;99.90;;;;;;4375059;32;20158;-67
2022/09/20 10:25:58;;;;;;;3.30;0.90;;;14.60;99.90;;;;;;4369888;32;20230;-68
2022/09/20 10:28:50;;;;;;;0.47;0.47;;;14.70;99.90;;;;;;4373255;32;20317;-68
2022/09/20 10:31:36;;;;;;;0.40;0.40;;;14.70;99.90;;;;;;4387823;32;20268;-69
2022/09/20 10:34:38;;;;;;;1.48;0.70;;;14.80;99.90;;;;;;4374755;32;20498;-69
2022/09/20 10:37:21;;;;;;;0.50;0.50;;;14.90;99.90;;;;;;4377555;32;20529;-69
2022/09/20 10:40:05;;;;;;;0.50;0.50;;;14.80;99.90;;;;;;4390159;32;20085;-70
2022/09/20 10:43:39;;;;;;;0.40;0.40;;;14.80;99.90;;;;;;4381085;32;20090;-68
2022/09/20 10:45:32;;;;;;;0.40;0.40;;;14.50;99.90;;;;;;4373536;32;20113;-67
2022/09/20 10:48:07;;;;;;;0.47;0.47;;;14.60;99.90;;;;;;4388758;32;20747;-67
2022/09/20 10:50:56;;;;;;;0.40;0.40;;;14.60;99.90;;;;;;4385281;32;20129;-68
2022/09/20 10:53:32;;;;;;;0.55;0.47;;;14.70;99.90;;;;;;4366763;32;20152;-67
2022/09/20 10:56:20;;;;;;;0.30;0.30;;;14.90;99.90;;;;;;4361814;32;21477;-68
2022/09/20 10:59:16;;;;;;;0.93;0.70;;;15.20;99.90;;;;;;4339485;32;20101;-67
2022/09/20 11:02:03;;;;;;;0.68;0.60;;;15.10;99.90;;;;;;4366810;32;20628;-67
2022/09/20 11:04:52;;;;;;;3.75;1.75;;;15.30;99.90;;;;;;4372121;32;20241;-67
2022/09/20 11:07:32;;;;;;;0.40;0.40;;;15.60;99.90;;;;;;4371379;32;20109;-68
2022/09/20 11:10:06;;;;;;;0.40;0.40;;;15.70;99.90;;;;;;4373743;32;20178;-67
2022/09/20 11:12:41;;;;;;;0.40;0.40;;;15.50;99.90;;;;;;4360109;32;20375;-68
2022/09/20 11:15:35;;;;;;;0.35;0.35;;;15.30;99.90;;;;;;4367072;32;20966;-67
2022/09/20 11:18:11;;;;;;;0.80;0.80;;;15.40;99.90;;;;;;4360188;32;20320;-67
2022/09/20 11:20:50;;;;;;;1.67;0.75;;;15.60;99.90;;;;;;4364398;32;20125;-67
2022/09/20 11:23:23;;;;;;;10.38;0.70;;;15.80;99.90;;;;;;4368764;32;20490;-67
2022/09/20 11:25:54;;;;;;;0.88;0.73;;;15.70;99.90;;;;;;4371763;32;20114;-68
2022/09/20 11:28:29;;;;;;;0.45;0.45;;;15.50;99.90;;;;;;4348460;32;20122;-68
2022/09/20 11:31:02;;;;;;;0.35;0.35;;;15.70;99.90;;;;;;4371482;32;20080;-67
2022/09/20 11:33:35;;;;;;;0.40;0.40;;;15.60;99.90;;;;;;4361659;32;20195;-66
2022/09/20 11:36:04;;;;;;;0.45;0.45;;;15.30;99.90;;;;;;4376929;32;20656;-67
2022/09/20 11:38:36;;;;;;;0.32;0.32;;;15.10;99.90;;;;;;4363907;32;20607;-67
2022/09/20 11:41:14;;;;;;;0.32;0.32;;;14.80;99.90;;;;;;4380020;32;20160;-67
2022/09/20 11:43:44;;;;;;;0.30;0.30;;;14.50;99.90;;;;;;4387078;32;20092;-67
2022/09/20 11:46:14;;;;;;;1.12;0.70;;;14.20;99.90;;;;;;4381187;32;20101;-67
2022/09/20 11:48:48;;;;;;;0.50;0.50;;;14.00;99.90;;;;;;4383296;32;20106;-67
2022/09/20 11:51:53;;;;;;;0.43;0.43;;;13.90;99.90;;;;;;4394076;32;20096;-67
2022/09/20 11:54:27;;;;;;;0.30;0.30;;;13.70;99.90;;;;;;4374944;32;20666;-68
2022/09/20 11:56:55;;;;;;;0.40;0.40;;;13.60;99.90;;;;;;4378383;32;20208;-68
2022/09/20 11:59:32;;;;;;;0.40;0.40;;;13.60;99.90;;;;;;4372872;32;20212;-67
2022/09/20 12:02:01;;;;;;;0.85;0.50;;;13.50;99.90;;;;;;4363369;32;20087;-67
2022/09/20 12:04:30;;;;;;;0.75;0.50;;;13.60;99.90;;;;;;4374895;32;20090;-68
2022/09/20 12:07:07;;;;;;;0.50;0.50;;;13.60;99.90;;;;;;4389542;32;20125;-68
2022/09/20 12:09:38;;;;;;;0.43;0.43;;;13.60;99.90;;;;;;4385076;32;20085;-67
2022/09/20 12:12:23;;;;;;;;;;;13.60;99.90;;;;;;4381302;32;20166;-67
2022/09/20 12:14:54;;;;;;;0.43;0.43;;;13.80;99.90;;;;;;4364802;32;20655;-68
2022/09/20 12:18:00;;;;;;;0.40;0.40;;;13.90;99.90;;;;;;4380098;32;21966;-67
2022/09/20 12:20:37;;;;;;;6.93;0.50;;;13.90;99.90;;;;;;4385528;32;20190;-67
2022/09/20 12:23:40;;;;;;;1.10;0.60;;;13.90;99.90;;;;;;4380701;32;20114;-69
2022/09/20 12:26:09;;;;;;;0.90;0.90;;;13.80;99.90;;;;;;4326439;32;20102;-68
2022/09/20 12:28:38;;;;;;;0.37;0.37;;;13.80;99.90;;;;;;4330866;32;20129;-68
2022/09/20 12:31:25;;;;;;;1.35;0.57;;;13.80;99.90;;;;;;4349633;32;20168;-68
2022/09/20 12:34:03;;;;;;;0.40;0.40;;;13.80;99.90;;;;;;4360279;32;20337;-68
2022/09/20 12:36:34;;;;;;;0.65;0.60;;;14.00;99.90;;;;;;4381207;32;20348;-68
2022/09/20 12:39:11;;;;;;;0.50;0.50;;;14.10;99.90;;;;;;4384449;32;20256;-67
2022/09/20 12:41:56;;;;;;;2.85;1.62;;;14.10;99.90;;;;;;4398388;32;20077;-67
2022/09/20 12:44:43;;;;;;;0.98;0.73;;;14.20;99.90;;;;;;4402090;32;20085;-68
2022/09/20 12:47:11;;;;;;;0.50;0.50;;;14.10;99.90;;;;;;4397817;32;20114;-67
2022/09/20 12:53:10;;;;;;;0.30;0.30;;;14.20;99.90;;;;;;4390580;32;20097;-68
2022/09/20 12:55:37;;;;;;;0.62;0.35;;;14.30;99.90;;;;;;4391320;32;20081;-68
2022/09/20 12:58:16;;;;;;;0.37;0.37;;;14.50;99.90;;;;;;4395177;32;20882;-67
2022/09/20 13:01:04;;;;;;;0.65;0.65;;;14.50;99.90;;;;;;4399662;32;20089;-68
2022/09/20 13:03:41;;;;;;;0.40;0.40;;;14.50;99.90;;;;;;4365284;32;20088;-68
2022/09/20 13:06:10;;;;;;;0.35;0.35;;;14.40;99.90;;;;;;4402252;32;20139;-69
2022/09/20 13:08:56;;;;;;;0.50;0.50;;;14.30;99.90;;;;;;4407540;32;20159;-67
2022/09/20 13:11:28;;;;;;;0.43;0.43;;;14.20;99.90;;;;;;4405206;32;20097;-68
2022/09/20 13:14:17;;;;;;;0.40;0.40;;;13.90;99.90;;;;;;4406510;32;20077;-69
2022/09/20 13:16:53;;;;;;;0.30;0.30;;;13.50;99.90;;;;;;4408972;32;20180;-67
2022/09/20 13:19:28;;;;;;;0.40;0.40;;;13.20;99.90;;;;;;4402718;32;20097;-69
2022/09/20 13:22:18;;;;;;;0.40;0.40;;;12.80;99.90;;;;;;4385529;32;20135;-68
2022/09/20 13:24:46;;;;;;;0.40;0.40;;;12.50;99.90;;;;;;4384215;32;20158;-68
2022/09/20 13:27:35;;;;;;;0.30;0.30;;;12.30;99.90;;;;;;4399630;32;20097;-68
2022/09/20 13:30:18;;;;;;;0.47;0.47;;;12.10;99.90;;;;;;4384590;32;20109;-68
2022/09/20 13:32:44;;;;;;;0.30;0.30;;;11.80;99.90;;;;;;4386415;32;20851;-67
2022/09/20 13:35:12;;;;;;;0.30;0.30;;;11.70;99.90;;;;;;4402524;32;20796;-68
2022/09/20 13:37:45;;;;;;;0.30;0.30;;;11.60;99.90;;;;;;4407044;32;20623;-67
2022/09/20 13:40:32;;;;;;;0.30;0.30;;;11.50;99.90;;;;;;4396044;32;20069;-67
2022/09/20 13:43:00;;;;;;;0.40;0.40;;;11.70;99.90;;;;;;4395732;32;20085;-67
2022/09/20 13:45:26;;;;;;;0.30;0.30;;;11.70;99.90;;;;;;4404815;32;20126;-67
2022/09/20 13:47:53;;;;;;;0.30;0.30;;;11.70;99.90;;;;;;4406384;32;20294;-67
2022/09/20 13:50:30;;;;;;;0.20;0.20;;;11.90;99.90;;;;;;4412683;32;20064;-67
2022/09/20 13:52:58;;;;;;;0.30;0.30;;;11.90;99.90;;;;;;4411512;32;20065;-68
2022/09/20 13:55:30;;;;;;;0.30;0.30;;;12.70;99.90;;;;;;4403065;32;20990;-67